Lamar, MO

2:00 AM CST on January 23, 2017 (GMT -0600)
ME4983 | | Change Station

Elev 970 ft 37.60 °N, 94.29 °W | Updated 12 minutes ago

Overcast
Overcast
37.0 °F
Feels Like 34 °F
N
4.0
Wind Variable Wind from NW
Gusts 8.0 mph

Today
High -- | Low -- °F
--% Chance of Precip.
Yesterday
High -- | Low -- °F
Precip. -- in
Pressure 29.92 in
Visibility 10.0 miles
Clouds Overcast 1000 ft
Windchill 34 °F
Dew Point 35 °F
Humidity 93%
Rainfall 1.11 in
Snow Depth Not available.
7:26 AM 5:31 PM
Waning Crescent, 20% visible
METAR KPTS 230755Z AUTO 34005KT 10SM OVC010 04/03 A2992 RMK AO2 T00370027
Pressure 29.92 in
Visibility 10.0 miles
Clouds Overcast 1000 ft
Windchill 34 °F
Dew Point 35 °F
Humidity 93%
Rainfall 1.11 in
Snow Depth Not available.
7:26 AM 5:31 PM
Waning Crescent, 20% visible
METAR KPTS 230755Z AUTO 34005KT 10SM OVC010 04/03 A2992 RMK AO2 T00370027

Get Your Daily Forecast Email!

Thanks for signing up!

Be on the lookout for a verification email in your inbox.

You'll start receiving the daily forecast at 8 AM.

×

10-Day Weather Forecast

Almanac

Astronomy

Jan. 23, 2017 Rise Set
Actual Time
Civil Twilight
Nautical Twilight
Astronomical Twilight
Moon
Length of Visible Light
Length of Day
Tomorrow will be .
, % of the Moon is Illuminated

Today's Extremes

State Highs State Lows

Community

WunderPhotos

Upload Photos

1,962,540 photos uploaded!

WunderBlog® & News

Nearby

Air Quality

  Air Quality AQ Index Pollutant
Not available.

Snow Depth

Station Depth Elevation

Earthquake Activity

City Distance Mag. Time & Date
Minimum magnitude displayed is 2.5.

Coastal Water Temperatures

Place Temperature

Stations

Nearby Weather Stations

Station Location Temp. Windchill Dew Point Humidity Wind Precip. Elev Updated Type
                   

Watches & Warnings

There are currently no watches in effect.